Time;durP1;ratioP1;P1;durP2;ratioP2;P2;SDS_P1;SDS_P2;PMS_P1;PMS_P2;Temp;Humidity;BMP_temperature;BMP_pressure;BME280_temperature;BME280_humidity;BME280_pressure;Samples;Min_cycle;Max_cycle;Signal;HPM_P1;HPM_P2
2022/09/18 00:01:10;;;;;;;13.32;0.40;;;;;;;8.30;52.35;101029.34;4997263;28;20033;-66
2022/09/18 00:03:37;;;;;;;13.45;0.90;;;;;;;8.47;51.59;101021.94;4996682;28;20132;-66
2022/09/18 00:06:11;;;;;;;2.42;0.20;;;;;;;8.43;51.51;101020.31;4997510;28;20568;-71
2022/09/18 00:08:37;;;;;;;4.10;0.47;;;;;;;8.59;51.22;101009.44;4996632;28;20052;-71
2022/09/18 00:11:07;;;;;;;9.68;0.50;;;;;;;8.44;51.35;101019.38;4998981;28;20057;-70
2022/09/18 00:13:35;;;;;;;12.57;0.88;;;;;;;8.44;51.11;101014.19;4995332;28;20562;-71
2022/09/18 00:16:00;;;;;;;10.02;0.75;;;;;;;8.04;51.30;101011.84;4997340;28;20033;-69
2022/09/18 00:18:26;;;;;;;3.15;0.40;;;;;;;8.27;50.04;101006.88;4994370;28;20050;-68
2022/09/18 00:20:51;;;;;;;18.17;0.30;;;;;;;8.23;50.04;101010.44;5013003;28;20045;-68
2022/09/18 00:23:17;;;;;;;8.13;0.30;;;;;;;8.32;49.29;101010.19;4995414;28;20065;-68
2022/09/18 00:25:42;;;;;;;2.67;0.30;;;;;;;8.10;49.54;101011.69;4996899;28;20121;-68
2022/09/18 00:28:08;;;;;;;4.10;0.73;;;;;;;8.30;48.70;101008.53;4991918;28;20104;-69
2022/09/18 00:30:33;;;;;;;3.95;0.50;;;;;;;8.03;49.02;101013.59;4996906;28;20061;-68
2022/09/18 00:32:59;;;;;;;7.32;1.10;;;;;;;8.20;48.80;101014.88;4996494;28;20045;-68
2022/09/18 00:35:24;;;;;;;8.07;0.75;;;;;;;8.21;48.49;101024.41;4994877;28;20152;-68
2022/09/18 00:37:50;;;;;;;11.02;0.77;;;;;;;8.20;48.52;101025.28;4995432;28;20410;-68
2022/09/18 00:40:16;;;;;;;6.07;0.15;;;;;;;8.30;48.49;101018.94;4992438;28;20034;-68
2022/09/18 00:42:42;;;;;;;10.27;0.60;;;;;;;8.23;48.19;101020.88;4977118;28;20088;-68
2022/09/18 00:45:11;;;;;;;8.40;0.55;;;;;;;8.22;48.57;101023.50;4994720;28;20592;-69
2022/09/18 00:47:44;;;;;;;2.58;0.75;;;;;;;8.43;47.68;101020.31;4988788;28;20046;-68
2022/09/18 00:50:15;;;;;;;2.83;0.47;;;;;;;8.29;47.90;101025.91;4993689;28;20030;-68
2022/09/18 00:52:50;;;;;;;8.15;0.40;;;;;;;8.46;46.59;101028.00;4996763;28;20075;-68
2022/09/18 00:55:21;;;;;;;2.53;0.30;;;;;;;8.34;45.84;101023.16;4995040;28;20042;-68
2022/09/18 00:57:53;;;;;;;7.22;0.50;;;;;;;8.60;45.15;101031.97;4995137;28;20045;-68
2022/09/18 01:00:19;;;;;;;4.15;0.15;;;;;;;8.53;45.15;101029.53;4986005;28;20030;-68
2022/09/18 01:02:47;;;;;;;7.32;0.75;;;;;;;8.91;45.09;101024.13;4995751;28;20612;-67
2022/09/18 01:05:17;;;;;;;5.82;0.50;;;;;;;9.01;44.30;101033.38;4992769;28;20030;-68
2022/09/18 01:08:02;;;;;;;5.25;0.10;;;;;;;8.68;45.00;101023.03;4994152;28;20057;-64
2022/09/18 01:10:49;;;;;;;7.10;0.20;;;;;;;8.42;45.50;101026.38;4993075;28;20054;-64
2022/09/18 01:13:34;;;;;;;3.70;0.63;;;;;;;8.53;45.57;101024.31;5009551;28;20077;-64
2022/09/18 01:16:09;;;;;;;5.63;0.43;;;;;;;8.60;45.89;101025.00;4999765;28;20484;-64
2022/09/18 01:18:44;;;;;;;3.70;0.10;;;;;;;8.46;45.93;101033.22;4993114;28;20057;-64
2022/09/18 01:21:16;;;;;;;3.40;0.20;;;;;;;8.71;45.84;101037.75;4985475;28;20116;-65
2022/09/18 01:23:47;;;;;;;5.72;0.20;;;;;;;8.53;45.94;101032.16;4995080;28;20037;-65
2022/09/18 01:26:37;;;;;;;6.00;0.80;;;;;;;8.50;46.14;101034.00;4970172;28;20034;-64
2022/09/18 01:29:30;;;;;;;4.88;0.47;;;;;;;8.30;46.79;101035.41;4997625;28;20434;-65
2022/09/18 01:32:03;;;;;;;7.05;0.28;;;;;;;8.40;47.04;101028.19;4997786;28;20115;-65
2022/09/18 01:34:46;;;;;;;4.15;0.63;;;;;;;8.38;47.13;101023.91;4996743;28;20128;-65
2022/09/18 01:37:19;;;;;;;6.78;0.40;;;;;;;8.53;46.85;101024.31;4981121;28;20038;-63
2022/09/18 01:39:52;;;;;;;9.07;0.40;;;;;;;8.39;47.06;101031.69;5015318;28;20080;-65
2022/09/18 01:42:21;;;;;;;4.53;0.32;;;;;;;8.57;46.20;101028.56;4986696;28;20467;-66
2022/09/18 01:44:49;;;;;;;3.85;0.40;;;;;;;8.22;46.81;101026.09;5014651;28;20084;-64
2022/09/18 01:47:18;;;;;;;7.05;0.40;;;;;;;8.33;46.98;101016.25;5012604;28;20099;-65
2022/09/18 01:49:52;;;;;;;7.82;0.70;;;;;;;8.49;46.72;101012.28;5000026;28;20501;-64
2022/09/18 01:52:32;;;;;;;10.05;0.25;;;;;;;8.30;47.29;101017.19;4986663;28;20181;-65
2022/09/18 01:55:01;;;;;;;1.48;0.20;;;;;;;8.18;47.33;101007.09;5000350;28;20401;-63
2022/09/18 01:57:33;;;;;;;4.78;0.32;;;;;;;8.14;46.67;101016.75;4995510;28;20038;-64
2022/09/18 02:00:12;;;;;;;3.28;0.20;;;;;;;7.84;46.20;101007.16;5015667;28;20463;-71
2022/09/18 02:02:46;;;;;;;5.40;0.20;;;;;;;8.37;44.93;101007.44;4998582;28;20065;-69
2022/09/18 02:05:21;;;;;;;4.85;0.38;;;;;;;8.35;44.66;100998.81;4996346;28;20384;-70
2022/09/18 02:07:57;;;;;;;2.90;0.20;;;;;;;8.48;44.96;101002.78;4996724;28;20041;-69
2022/09/18 02:10:25;;;;;;;1.50;0.10;;;;;;;8.46;44.96;100991.53;4992932;28;20104;-70
2022/09/18 02:12:55;;;;;;;5.70;0.32;;;;;;;8.50;44.91;100994.94;5000510;28;20052;-71
2022/09/18 02:15:23;;;;;;;4.95;0.10;;;;;;;8.54;45.08;100994.78;4998676;28;20045;-71
2022/09/18 02:17:59;;;;;;;3.30;0.40;;;;;;;8.52;45.44;100995.75;5006222;28;20049;-70
2022/09/18 02:20:36;;;;;;;4.28;0.52;;;;;;;8.47;45.97;100998.47;5000850;28;20033;-71
2022/09/18 02:23:05;;;;;;;2.03;0.38;;;;;;;8.65;45.31;101001.41;5003639;28;20041;-71
2022/09/18 02:25:36;;;;;;;3.03;0.20;;;;;;;8.81;45.10;101002.72;5008943;28;20029;-64
2022/09/18 02:28:04;;;;;;;4.32;0.10;;;;;;;8.72;45.58;100995.19;5001476;28;20045;-67
2022/09/18 02:30:30;;;;;;;3.53;0.20;;;;;;;8.62;45.28;100997.16;5000008;28;20057;-66
2022/09/18 02:32:58;;;;;;;1.48;0.15;;;;;;;8.43;46.36;100996.84;4999569;28;20042;-65
2022/09/18 02:35:36;;;;;;;3.22;0.30;;;;;;;8.42;46.89;101000.34;4998719;28;20042;-65
2022/09/18 02:38:27;;;;;;;12.18;1.58;;;;;;;8.14;48.93;101001.13;4998576;28;20046;-65
2022/09/18 02:41:10;;;;;;;3.80;0.45;;;;;;;8.24;48.85;101000.88;4997878;28;20098;-66
2022/09/18 02:44:16;;;;;;;14.80;1.45;;;;;;;8.45;48.41;100988.97;5014359;28;20107;-67
2022/09/18 02:46:56;;;;;;;7.18;0.70;;;;;;;8.37;48.65;100991.81;4996729;28;20041;-68
2022/09/18 02:49:25;;;;;;;10.00;0.68;;;;;;;8.37;48.86;100989.22;5012967;28;20030;-67
2022/09/18 02:51:56;;;;;;;7.47;0.63;;;;;;;8.47;48.50;100990.66;4996889;28;20096;-69
2022/09/18 02:54:31;;;;;;;5.25;0.95;;;;;;;8.38;48.91;100993.50;4995890;28;20037;-67
2022/09/18 02:57:05;;;;;;;10.40;0.63;;;;;;;8.60;47.87;100983.31;4997732;28;20049;-68
2022/09/18 02:59:40;;;;;;;2.45;0.30;;;;;;;8.27;48.62;100991.25;4989514;28;20026;-68
2022/09/18 03:02:09;;;;;;;3.03;0.15;;;;;;;8.51;48.01;100987.03;5012805;28;20041;-68
2022/09/18 03:04:36;;;;;;;3.13;0.38;;;;;;;8.46;47.98;100986.34;5000141;28;20557;-68
2022/09/18 03:07:04;;;;;;;2.53;0.55;;;;;;;8.43;47.89;100985.59;4992788;28;20105;-67
2022/09/18 03:09:34;;;;;;;4.10;0.40;;;;;;;8.23;48.80;100981.81;4995779;28;20120;-68
2022/09/18 03:12:01;;;;;;;2.55;0.15;;;;;;;8.08;48.88;100979.63;4998588;28;20225;-68
2022/09/18 03:14:29;;;;;;;9.93;0.50;;;;;;;7.95;49.01;100982.56;4994998;28;20498;-67
2022/09/18 03:16:54;;;;;;;5.70;0.30;;;;;;;7.87;49.40;100976.72;4979506;28;20041;-67
2022/09/18 03:19:20;;;;;;;3.65;0.10;;;;;;;7.81;49.24;100973.44;4997632;28;20387;-71
2022/09/18 03:21:46;;;;;;;2.80;0.30;;;;;;;7.77;49.62;100969.19;4980041;28;20185;-70
2022/09/18 03:24:11;;;;;;;2.45;0.10;;;;;;;7.80;49.38;100979.50;4983209;28;20032;-71
2022/09/18 03:26:40;;;;;;;2.95;0.40;;;;;;;7.84;49.83;101002.81;4989792;28;20029;-71
2022/09/18 03:29:07;;;;;;;10.23;0.47;;;;;;;7.77;49.87;100998.66;4997181;28;20626;-70
2022/09/18 03:31:33;;;;;;;3.35;0.30;;;;;;;7.65;49.49;100989.44;5011204;28;20030;-70
2022/09/18 03:33:59;;;;;;;5.85;0.80;;;;;;;7.46;49.34;100980.34;4997995;28;20376;-68
2022/09/18 03:36:25;;;;;;;5.30;0.22;;;;;;;7.67;47.93;100973.81;4997661;28;20037;-67
2022/09/18 03:38:52;;;;;;;3.13;0.43;;;;;;;8.02;45.91;100975.44;4980225;28;20112;-68
2022/09/18 03:41:18;;;;;;;1.23;0.30;;;;;;;8.04;44.45;100973.63;4995431;28;20522;-68
2022/09/18 03:43:43;;;;;;;1.05;0.10;;;;;;;8.36;43.86;100969.28;5011344;28;20034;-68
2022/09/18 03:46:10;;;;;;;3.75;0.55;;;;;;;8.39;43.86;100969.19;4996175;28;20107;-68
2022/09/18 03:48:36;;;;;;;2.63;0.10;;;;;;;8.22;44.72;100981.84;5000463;28;20084;-68
2022/09/18 03:51:03;;;;;;;3.47;0.70;;;;;;;8.24;44.85;100969.63;4975056;28;20033;-68
2022/09/18 03:53:30;;;;;;;4.10;0.20;;;;;;;8.19;45.44;100966.31;4997445;28;20069;-68
2022/09/18 03:56:27;;;;;;;4.88;0.20;;;;;;;8.23;45.38;100967.94;4968955;28;20334;-67
2022/09/18 03:59:02;;;;;;;4.38;0.22;;;;;;;8.14;45.35;100963.84;5013034;28;20090;-69
2022/09/18 04:01:36;;;;;;;1.75;0.13;;;;;;;8.17;45.28;100973.31;4994102;28;20083;-68
2022/09/18 04:04:31;;;;;;;5.80;0.22;;;;;;;7.83;46.93;100987.25;4996486;28;20053;-67
2022/09/18 04:07:22;;;;;;;1.70;0.55;;;;;;;7.65;48.34;100984.25;4996204;28;20045;-67
2022/09/18 04:10:07;;;;;;;6.43;0.10;;;;;;;7.93;47.51;100973.09;5009563;28;20107;-69
2022/09/18 04:12:37;;;;;;;3.85;0.10;;;;;;;8.32;46.26;100967.66;4977497;28;20042;-66
2022/09/18 04:15:11;;;;;;;7.18;0.47;;;;;;;8.28;45.93;100960.84;5012641;28;20088;-67
2022/09/18 04:17:36;;;;;;;1.63;0.20;;;;;;;8.44;45.51;100956.88;4977341;28;20034;-64
2022/09/18 04:20:03;;;;;;;4.93;0.10;;;;;;;8.19;45.91;100954.16;4999573;28;20119;-64
2022/09/18 04:22:30;;;;;;;9.13;0.22;;;;;;;8.23;46.22;100957.53;4997474;28;20050;-64
2022/09/18 04:24:55;;;;;;;6.07;0.10;;;;;;;8.23;46.10;100947.09;4984914;28;20034;-65
2022/09/18 04:27:21;;;;;;;3.70;0.20;;;;;;;8.01;46.63;100950.31;4995857;28;20092;-64
2022/09/18 04:29:48;;;;;;;0.35;0.10;;;;;;;8.05;46.24;100938.06;4980150;28;20097;-65
2022/09/18 04:32:15;;;;;;;8.60;0.20;;;;;;;8.00;46.73;100937.34;5011305;28;20187;-65
2022/09/18 04:34:42;;;;;;;5.13;0.38;;;;;;;8.03;46.55;100940.72;4995515;28;20056;-66
2022/09/18 04:37:08;;;;;;;7.40;0.25;;;;;;;8.09;46.96;100943.16;4997017;28;20824;-66
2022/09/18 04:39:34;;;;;;;4.20;0.13;;;;;;;8.06;47.56;100953.63;5001662;28;20339;-67
2022/09/18 04:42:02;;;;;;;3.60;0.20;;;;;;;8.20;47.18;100942.81;4994331;28;20045;-68
2022/09/18 04:44:28;;;;;;;8.35;0.43;;;;;;;8.19;47.59;100953.28;4995732;28;20046;-68
2022/09/18 04:46:54;;;;;;;9.10;0.30;;;;;;;8.09;47.93;100956.16;4995205;28;20057;-68
2022/09/18 04:49:19;;;;;;;1.92;0.20;;;;;;;8.44;47.23;100962.09;4994765;28;20410;-69
2022/09/18 04:51:45;;;;;;;7.28;0.32;;;;;;;8.02;49.15;100948.56;4980798;28;20042;-69
2022/09/18 04:54:13;;;;;;;3.65;0.10;;;;;;;8.24;49.16;100948.81;5011447;28;20084;-69
2022/09/18 04:56:39;;;;;;;2.22;0.10;;;;;;;8.15;50.33;100948.16;4993825;28;20026;-69
2022/09/18 04:59:05;;;;;;;6.82;0.47;;;;;;;8.10;50.74;100946.59;4997646;28;20447;-69
2022/09/18 05:01:33;;;;;;;10.45;0.55;;;;;;;8.29;51.13;100946.91;4992826;28;20030;-69
2022/09/18 05:04:03;;;;;;;2.50;0.30;;;;;;;8.11;51.54;100943.97;4989954;28;20145;-78
2022/09/18 05:06:58;;;;;;;3.13;0.20;;;;;;;8.17;51.31;100947.28;5012830;28;20335;-77
2022/09/18 05:09:23;;;;;;;5.53;0.20;;;;;;;8.24;51.26;100943.59;5006457;28;20029;-78
2022/09/18 05:11:49;;;;;;;9.52;0.40;;;;;;;8.31;50.91;100955.53;4988048;28;20034;-78
2022/09/18 05:14:16;;;;;;;4.15;0.20;;;;;;;8.28;50.96;100986.88;5009183;28;20026;-76
2022/09/18 05:16:45;;;;;;;2.55;0.40;;;;;;;8.19;51.72;100982.78;5005293;28;20425;-78
2022/09/18 05:19:30;;;;;;;6.03;0.40;;;;;;;8.11;51.58;100964.78;4996725;28;20437;-78
2022/09/18 05:22:18;;;;;;;6.07;0.25;;;;;;;7.76;52.87;100963.16;5013665;28;20365;-70
2022/09/18 05:24:47;;;;;;;5.20;0.32;;;;;;;7.76;53.05;100962.28;5000086;28;20403;-69
2022/09/18 05:27:15;;;;;;;4.10;0.17;;;;;;;7.80;52.58;100964.78;5000608;28;20037;-70
2022/09/18 05:29:41;;;;;;;5.00;0.10;;;;;;;7.88;52.37;100957.59;4990615;28;20026;-70
2022/09/18 05:32:11;;;;;;;3.50;0.52;;;;;;;7.90;52.58;100949.75;4997783;28;20033;-73
2022/09/18 05:34:37;;;;;;;3.45;0.25;;;;;;;7.88;52.97;100959.34;4999897;28;20091;-73
2022/09/18 05:37:05;;;;;;;4.90;0.10;;;;;;;7.80;53.70;100949.16;4998898;28;20108;-72
2022/09/18 05:39:31;;;;;;;1.83;0.60;;;;;;;7.90;53.59;100954.97;5001082;28;20238;-73
2022/09/18 05:42:00;;;;;;;3.50;0.30;;;;;;;8.12;53.14;100945.66;4997645;28;20112;-69
2022/09/18 05:44:27;;;;;;;2.72;0.10;;;;;;;8.35;53.46;100941.53;4997609;28;20034;-69
2022/09/18 05:46:53;;;;;;;3.83;0.35;;;;;;;8.56;52.85;100940.00;4987909;28;20041;-69
2022/09/18 05:49:19;;;;;;;9.20;0.60;;;;;;;8.58;52.95;100940.81;4982173;28;20486;-70
2022/09/18 05:51:45;;;;;;;3.17;0.10;;;;;;;8.85;52.73;100938.28;4995174;28;20461;-70
2022/09/18 05:54:12;;;;;;;0.60;0.20;;;;;;;8.94;51.93;100951.91;4998443;28;20120;-72
2022/09/18 05:56:45;;;;;;;1.85;0.68;;;;;;;8.98;51.76;100969.16;5013917;28;20034;-70
2022/09/18 05:59:11;;;;;;;9.43;0.73;;;;;;;8.51;52.69;100989.66;4983529;28;20052;-72
2022/09/18 06:01:37;;;;;;;7.32;0.30;;;;;;;8.26;52.37;100991.28;4975223;28;20046;-73
2022/09/18 06:04:19;;;;;;;5.35;0.13;;;;;;;8.05;53.01;100964.94;4986616;28;20553;-71
2022/09/18 06:06:50;;;;;;;4.55;0.10;;;;;;;8.06;52.64;100961.44;4984881;28;20042;-74
2022/09/18 06:09:16;;;;;;;1.63;0.30;;;;;;;8.06;52.61;100966.66;5022794;23;20066;-70
2022/09/18 06:11:42;;;;;;;5.22;0.20;;;;;;;8.40;52.47;100957.00;5005395;28;20033;-69
2022/09/18 06:14:07;;;;;;;6.20;0.60;;;;;;;8.63;52.10;100949.38;5107490;22;20053;-71
2022/09/18 06:16:33;;;;;;;4.68;0.10;;;;;;;8.75;51.94;100953.38;4963604;28;21100;-68
2022/09/18 06:19:02;;;;;;;4.10;0.17;;;;;;;8.91;51.90;100956.34;4972554;28;20934;-67
2022/09/18 06:21:27;;;;;;;6.40;0.20;;;;;;;9.01;52.34;100955.16;4966885;28;20031;-68
2022/09/18 06:23:53;;;;;;;7.28;0.30;;;;;;;9.24;51.97;100954.41;4970090;28;20057;-67
2022/09/18 06:26:39;;;;;;;6.10;0.30;;;;;;;9.95;52.11;100952.84;4953418;28;20125;-66
2022/09/18 06:29:05;;;;;;;7.88;0.28;;;;;;;9.86;50.22;100947.13;4961225;28;20126;-66
2022/09/18 06:31:39;;;;;;;2.65;0.50;;;;;;;9.86;51.07;100934.06;4971503;28;20035;-67
2022/09/18 06:34:08;;;;;;;6.90;0.40;;;;;;;11.60;48.03;100938.53;4947996;28;20082;-68
2022/09/18 06:36:33;;;;;;;4.10;0.30;;;;;;;14.71;40.42;100935.41;4964987;28;20061;-73
2022/09/18 06:39:13;;;;;;;2.03;0.30;;;;;;;17.12;36.95;100927.69;4958552;28;20946;-71
2022/09/18 06:41:38;;;;;;;2.55;0.32;;;;;;;17.46;32.91;100930.69;4967538;28;20022;-71
2022/09/18 06:44:15;;;;;;;2.60;0.30;;;;;;;18.88;31.57;100918.91;4980379;28;20312;-72
2022/09/18 06:46:46;;;;;;;3.00;0.10;;;;;;;20.05;30.65;100918.72;4973873;28;20046;-71
2022/09/18 06:49:21;;;;;;;6.40;0.10;;;;;;;19.67;30.36;100932.34;4969143;28;20066;-71
2022/09/18 06:51:48;;;;;;;7.05;0.20;;;;;;;18.66;29.82;100943.44;4973773;28;20868;-71
2022/09/18 06:54:15;;;;;;;2.38;0.77;;;;;;;15.31;37.51;100960.94;4973823;28;20509;-72
2022/09/18 06:56:41;;;;;;;2.17;0.13;;;;;;;13.25;40.90;100958.88;4958700;28;20030;-73
2022/09/18 06:59:09;;;;;;;1.77;0.13;;;;;;;11.65;44.88;100960.13;4973722;28;20034;-72
2022/09/18 07:01:36;;;;;;;7.30;0.30;;;;;;;10.93;47.23;100958.75;4970727;28;20038;-71
2022/09/18 07:04:08;;;;;;;5.25;0.40;;;;;;;10.22;49.65;100951.00;4981936;28;20030;-71
2022/09/18 07:06:45;;;;;;;3.25;0.55;;;;;;;10.28;49.76;100944.69;4984245;28;20034;-71
2022/09/18 07:09:12;;;;;;;6.50;0.25;;;;;;;11.69;48.89;100940.75;4953874;28;20031;-72
2022/09/18 07:12:10;;;;;;;6.82;0.40;;;;;;;15.88;38.19;100932.97;4959793;28;20388;-71
2022/09/18 07:14:43;;;;;;;6.97;0.77;;;;;;;19.17;30.74;100924.66;4972537;28;20033;-71
2022/09/18 07:17:11;;;;;;;6.35;0.38;;;;;;;20.52;30.29;100918.53;4970690;28;20070;-71
2022/09/18 07:19:37;;;;;;;4.07;0.20;;;;;;;22.45;27.43;100919.81;4977020;28;20631;-72
2022/09/18 07:22:03;;;;;;;7.55;0.65;;;;;;;22.14;27.10;100927.03;4966406;28;20509;-72
2022/09/18 07:24:35;;;;;;;5.22;0.10;;;;;;;19.68;30.58;100919.00;4972292;28;20062;-70
2022/09/18 07:27:01;;;;;;;2.85;0.17;;;;;;;17.43;33.14;100930.91;4967249;28;20042;-71
2022/09/18 07:29:27;;;;;;;4.25;0.30;;;;;;;15.47;36.62;100934.53;4966443;28;20058;-72
2022/09/18 07:31:55;;;;;;;5.90;0.20;;;;;;;16.34;36.91;100930.97;4972745;28;20042;-71
2022/09/18 07:34:20;;;;;;;2.45;0.20;;;;;;;19.02;33.79;100923.16;4970535;28;20033;-71
2022/09/18 07:36:49;;;;;;;4.28;0.35;;;;;;;21.18;29.29;100905.13;4969753;28;20042;-72
2022/09/18 07:39:15;;;;;;;4.45;0.30;;;;;;;22.28;26.32;100908.00;4972000;28;20054;-70
2022/09/18 07:41:59;;;;;;;2.78;0.28;;;;;;;22.87;24.94;100913.38;4976333;28;20076;-71
2022/09/18 07:44:26;;;;;;;6.13;0.68;;;;;;;23.54;24.40;100912.47;4973662;28;20543;-73
2022/09/18 07:46:54;;;;;;;2.60;0.40;;;;;;;21.51;26.51;100916.50;4971353;28;20046;-72
2022/09/18 07:49:20;;;;;;;4.78;0.38;;;;;;;22.72;25.63;100915.66;4981591;28;20041;-71
2022/09/18 07:51:46;;;;;;;3.15;0.32;;;;;;;21.24;25.27;100923.19;4972111;28;20062;-73
2022/09/18 07:54:13;;;;;;;6.07;0.40;;;;;;;17.38;30.46;100939.16;4951072;28;20038;-71
2022/09/18 07:56:56;;;;;;;4.53;0.45;;;;;;;13.40;37.46;100936.22;4972518;28;20470;-71
2022/09/18 07:59:26;;;;;;;8.27;0.43;;;;;;;12.39;39.84;100933.28;4974718;28;21666;-72
2022/09/18 08:01:57;;;;;;;10.05;0.80;;;;;;;15.45;35.60;100931.16;4982133;28;20045;-71
2022/09/18 08:04:24;;;;;;;2.70;0.20;;;;;;;17.64;31.23;100923.31;4972152;28;20405;-72
2022/09/18 08:07:04;;;;;;;6.53;1.30;;;;;;;19.61;28.70;100920.41;4974159;28;20042;-72
2022/09/18 08:09:48;;;;;;;9.10;0.57;;;;;;;21.14;26.60;100915.16;4973032;28;20080;-71
2022/09/18 08:12:25;;;;;;;10.27;0.40;;;;;;;20.53;26.18;100907.81;4970869;28;20065;-72
2022/09/18 08:15:14;;;;;;;4.07;0.75;;;;;;;19.97;26.31;100905.25;4972872;28;20046;-72
2022/09/18 08:17:59;;;;;;;6.75;0.60;;;;;;;19.61;27.77;100911.63;4970182;28;20104;-72
2022/09/18 08:20:41;;;;;;;6.75;0.45;;;;;;;18.79;29.33;100901.88;4979953;28;20026;-71
2022/09/18 08:23:26;;;;;;;4.53;0.22;;;;;;;15.94;32.27;100907.06;4995495;28;22435;-71
2022/09/18 08:25:51;;;;;;;3.35;0.20;;;;;;;14.80;34.39;100912.16;4985498;28;20030;-72
2022/09/18 08:28:17;;;;;;;3.58;0.43;;;;;;;16.53;32.19;100909.56;4994482;28;20046;-72
2022/09/18 08:30:50;;;;;;;4.45;0.73;;;;;;;18.52;29.12;100904.75;4983800;28;20096;-71
2022/09/18 08:33:16;;;;;;;3.83;0.90;;;;;;;18.16;27.78;100913.50;4977268;28;20156;-71
2022/09/18 08:35:42;;;;;;;8.23;0.95;;;;;;;19.32;25.61;100897.94;4971477;28;20038;-72
2022/09/18 08:38:17;;;;;;;5.88;0.10;;;;;;;19.38;25.02;100908.06;4972431;28;20073;-72
2022/09/18 08:41:01;;;;;;;1.55;0.10;;;;;;;17.65;26.84;100912.66;4970943;28;20049;-71
2022/09/18 08:43:27;;;;;;;3.80;0.20;;;;;;;15.68;30.77;100927.13;4970361;28;20051;-71
2022/09/18 08:46:01;;;;;;;2.63;0.10;;;;;;;14.30;33.95;100935.91;4970728;28;20038;-71
2022/09/18 08:48:30;;;;;;;7.88;0.20;;;;;;;14.01;34.45;100932.22;4970362;28;20662;-71
2022/09/18 08:51:27;;;;;;;4.13;0.38;;;;;;;15.31;31.40;100928.50;4970376;28;20030;-71
2022/09/18 08:54:00;;;;;;;2.80;0.20;;;;;;;16.38;30.87;100921.94;4963108;28;20053;-72
2022/09/18 08:56:51;;;;;;;3.75;0.40;;;;;;;15.43;31.96;100926.91;4978527;28;20099;-70
2022/09/18 08:59:39;;;;;;;3.22;0.15;;;;;;;15.22;32.38;100923.78;4987022;28;20057;-73
2022/09/18 09:02:29;;;;;;;5.78;0.45;;;;;;;15.94;33.23;100924.69;4960754;28;20042;-74
2022/09/18 09:05:00;;;;;;;1.75;0.15;;;;;;;15.78;31.54;100933.53;4971999;28;20066;-71
2022/09/18 09:07:51;;;;;;;3.38;0.35;;;;;;;15.04;30.53;100931.78;4965477;28;20239;-71
2022/09/18 09:10:46;;;;;;;4.53;0.20;;;;;;;14.44;31.17;100926.44;4972665;28;20072;-70
2022/09/18 09:13:53;;;;;;;8.30;0.30;;;;;;;13.84;33.88;100942.78;4982907;28;20047;-71
2022/09/18 09:16:38;;;;;;;6.40;0.22;;;;;;;13.00;36.40;100930.34;4969565;28;20042;-72
2022/09/18 09:19:21;;;;;;;8.68;0.30;;;;;;;12.74;37.52;100933.44;4990190;22;20070;-69
2022/09/18 09:22:04;;;;;;;4.95;0.30;;;;;;;13.16;36.56;100925.22;5003910;28;20038;-67
2022/09/18 09:24:32;;;;;;;5.25;0.20;;;;;;;13.76;35.29;100924.78;5004337;28;20033;-68
2022/09/18 09:27:15;;;;;;;9.30;0.40;;;;;;;14.17;36.00;100934.03;5012038;28;20660;-68
2022/09/18 09:30:12;;;;;;;9.75;1.77;;;;;;;14.96;34.15;100939.25;4951769;28;20591;-69
2022/09/18 09:33:26;;;;;;;9.65;0.50;;;;;;;15.31;34.43;100942.50;5010846;28;20034;-68
2022/09/18 09:36:22;;;;;;;7.05;0.40;;;;;;;14.72;38.94;100938.88;4988772;28;20045;-68
2022/09/18 09:39:14;;;;;;;4.43;0.20;;;;;;;13.13;38.69;100929.75;5010485;28;20045;-69
2022/09/18 09:42:20;;;;;;;5.25;0.30;;;;;;;12.59;39.87;100929.72;5016949;28;20506;-68
2022/09/18 09:45:00;;;;;;;3.97;0.25;;;;;;;12.93;42.13;100939.44;4936445;28;20117;-68
2022/09/18 09:47:32;;;;;;;4.60;0.20;;;;;;;13.16;40.37;100926.97;5010758;28;20387;-68
2022/09/18 09:50:07;;;;;;;5.03;0.32;;;;;;;14.10;39.12;100920.38;5004556;28;20245;-69
2022/09/18 09:52:40;;;;;;;3.10;0.38;;;;;;;15.03;36.33;100914.28;5004377;28;20079;-69
2022/09/18 09:55:18;;;;;;;7.95;0.50;;;;;;;14.36;35.16;100925.03;5013832;28;20521;-69
2022/09/18 09:57:56;;;;;;;4.78;0.35;;;;;;;14.73;34.29;100914.28;5005832;28;20096;-69
2022/09/18 10:00:22;;;;;;;3.70;0.17;;;;;;;15.23;34.93;100912.31;5030886;28;20029;-68
2022/09/18 10:03:33;;;;;;;4.63;0.20;;;;;;;15.48;32.25;100915.19;5008199;28;20046;-69
2022/09/18 10:06:22;;;;;;;8.82;0.40;;;;;;;15.00;32.73;100914.47;4952180;28;20404;-68
2022/09/18 10:09:15;;;;;;;11.52;0.30;;;;;;;13.92;33.09;100914.34;5006573;28;20054;-68
2022/09/18 10:11:50;;;;;;;3.03;0.20;;;;;;;14.82;33.36;100931.31;5007968;28;20450;-68
2022/09/18 10:14:24;;;;;;;2.45;0.30;;;;;;;14.24;32.42;100933.59;5012550;28;20025;-68
2022/09/18 10:16:55;;;;;;;2.58;0.20;;;;;;;15.04;32.82;100917.78;5028430;28;20056;-66
2022/09/18 10:19:31;;;;;;;1.90;0.70;;;;;;;15.65;32.52;100921.22;5012910;28;20034;-67
2022/09/18 10:21:57;;;;;;;2.15;0.10;;;;;;;15.85;30.42;100917.34;5027712;28;20212;-66
2022/09/18 10:24:32;;;;;;;4.63;0.30;;;;;;;16.13;30.39;100921.78;4988387;28;20021;-67
2022/09/18 10:27:10;;;;;;;3.60;0.20;;;;;;;15.94;30.94;100912.34;5004293;28;20095;-67
2022/09/18 10:29:37;;;;;;;4.60;0.30;;;;;;;14.54;32.59;100911.81;4995205;28;20086;-67
2022/09/18 10:32:05;;;;;;;2.47;0.20;;;;;;;15.35;32.50;100914.22;5007649;28;20046;-67
2022/09/18 10:34:35;;;;;;;4.97;0.32;;;;;;;16.07;32.28;100909.00;5006389;28;20577;-68
2022/09/18 10:37:02;;;;;;;8.32;0.95;;;;;;;15.38;30.96;100901.69;4998885;28;20038;-67
2022/09/18 10:39:35;;;;;;;4.38;0.38;;;;;;;15.65;29.92;100910.66;5007982;28;20039;-67
2022/09/18 10:42:06;;;;;;;6.13;0.20;;;;;;;15.64;30.63;100922.13;5014269;28;20041;-67
2022/09/18 10:44:35;;;;;;;5.15;0.40;;;;;;;14.67;30.39;100901.47;5007050;28;21015;-67
2022/09/18 10:47:18;;;;;;;6.05;0.20;;;;;;;15.68;28.34;100902.56;5012489;28;20041;-67
2022/09/18 10:49:55;;;;;;;3.28;0.20;;;;;;;16.24;28.52;100900.84;4990424;28;20048;-68
2022/09/18 10:52:34;;;;;;;4.05;0.20;;;;;;;16.34;29.36;100912.50;4984014;28;20080;-67
2022/09/18 10:55:27;;;;;;;4.45;0.10;;;;;;;15.01;28.45;100908.25;5010496;28;20049;-66
2022/09/18 10:58:24;;;;;;;1.45;0.63;;;;;;;14.49;29.05;100919.97;5011848;28;20857;-66
2022/09/18 11:00:56;;;;;;;2.87;0.10;;;;;;;14.82;29.97;100910.28;4994491;28;20036;-66
2022/09/18 11:03:36;;;;;;;1.90;0.10;;;;;;;15.39;28.68;100905.19;5004605;28;20562;-67
2022/09/18 11:06:24;;;;;;;1.42;0.10;;;;;;;15.88;29.10;100898.72;5005629;28;20041;-67
2022/09/18 11:08:58;;;;;;;5.45;0.80;;;;;;;15.25;30.34;100902.53;5012470;28;20556;-67
2022/09/18 11:11:31;;;;;;;1.80;0.20;;;;;;;14.75;31.42;100913.25;5010962;28;20033;-67
2022/09/18 11:14:15;;;;;;;6.68;0.35;;;;;;;14.56;31.43;100915.22;5007027;28;20037;-67
2022/09/18 11:16:56;;;;;;;4.30;0.20;;;;;;;15.11;31.73;100901.53;4993463;28;20056;-67
2022/09/18 11:19:30;;;;;;;2.30;0.30;;;;;;;15.20;31.66;100900.13;5029236;28;20036;-67
2022/09/18 11:22:01;;;;;;;6.45;0.73;;;;;;;14.18;32.85;100902.38;5010139;28;20545;-67
2022/09/18 11:24:33;;;;;;;6.32;0.43;;;;;;;14.42;33.21;100904.63;5013764;28;20559;-67
2022/09/18 11:27:21;;;;;;;5.88;0.38;;;;;;;13.70;34.31;100915.47;5014219;28;20073;-67
2022/09/18 11:29:48;;;;;;;5.07;0.47;;;;;;;13.50;32.53;100910.38;5023534;28;20095;-67
2022/09/18 11:32:25;;;;;;;5.63;0.63;;;;;;;13.05;34.55;100912.63;4990920;28;20049;-66
2022/09/18 11:35:00;;;;;;;3.70;0.25;;;;;;;13.73;33.87;100936.31;5014178;28;20032;-67
2022/09/18 11:37:36;;;;;;;6.40;0.30;;;;;;;13.90;32.53;100931.94;5008353;28;20403;-67
2022/09/18 11:40:24;;;;;;;2.15;0.38;;;;;;;14.62;30.78;100930.66;5008085;28;20025;-68
2022/09/18 11:42:53;;;;;;;4.68;0.30;;;;;;;13.75;31.07;100923.09;5006792;28;20049;-66
2022/09/18 11:45:22;;;;;;;2.10;0.20;;;;;;;13.05;33.87;100933.63;5001425;28;20653;-67
2022/09/18 11:48:21;;;;;;;1.33;0.10;;;;;;;12.99;35.05;100960.16;5000977;28;20048;-67
2022/09/18 11:50:51;;;;;;;1.98;0.20;;;;;;;11.80;38.99;100959.50;4992164;28;20022;-68
2022/09/18 11:53:23;;;;;;;2.47;0.22;;;;;;;10.45;41.85;100930.97;4994047;28;20045;-67
2022/09/18 11:56:17;;;;;;;4.05;0.22;;;;;;;10.78;42.93;100914.88;4975015;28;20392;-67
2022/09/18 11:58:52;;;;;;;8.55;0.20;;;;;;;10.43;44.53;100914.50;4992808;28;20445;-66